Time;durP1;ratioP1;P1;durP2;ratioP2;P2;SDS_P1;SDS_P2;PMS_P1;PMS_P2;Temp;Humidity;BMP_temperature;BMP_pressure;BME280_temperature;BME280_humidity;BME280_pressure;Samples;Min_cycle;Max_cycle;Signal;HPM_P1;HPM_P2
2022/07/12 00:01:22;;;;;;;5.43;4.93;;;;;;;;;;5027007;28;20049;-73
2022/07/12 00:03:48;;;;;;;5.75;5.15;;;;;;;;;;5026619;28;20463;-73
2022/07/12 00:06:14;;;;;;;6.35;5.60;;;;;;;;;;5022650;28;20049;-73
2022/07/12 00:08:40;;;;;;;5.93;5.30;;;;;;;;;;5014322;28;20041;-74
2022/07/12 00:11:06;;;;;;;4.72;4.32;;;;;;;;;;5030450;28;20041;-74
2022/07/12 00:13:32;;;;;;;5.20;4.70;;;;;;;;;;5024486;28;20052;-74
2022/07/12 00:15:58;;;;;;;5.00;4.55;;;;;;;;;;5024192;28;20129;-73
2022/07/12 00:18:24;;;;;;;5.30;4.80;;;;;;;;;;5034732;28;20132;-74
2022/07/12 00:20:50;;;;;;;5.60;5.05;;;;;;;;;;5029991;28;20075;-73
2022/07/12 00:23:17;;;;;;;5.80;5.30;;;;;;;;;;5023517;28;20069;-73
2022/07/12 00:25:43;;;;;;;5.00;4.60;;;;;;;;;;5025354;28;20133;-74
2022/07/12 00:28:09;;;;;;;5.55;5.00;;;;;;;;;;5029757;28;20039;-74
2022/07/12 00:30:36;;;;;;;5.43;4.95;;;;;;;;;;5024570;28;20057;-74
2022/07/12 00:33:02;;;;;;;6.20;5.10;;;;;;;;;;5020989;28;20056;-73
2022/07/12 00:35:28;;;;;;;5.55;5.15;;;;;;;;;;5026351;28;20037;-73
2022/07/12 00:37:54;;;;;;;5.18;4.75;;;;;;;;;;5022665;28;20404;-73
2022/07/12 00:40:20;;;;;;;5.55;5.05;;;;;;;;;;5026516;28;20038;-73
2022/07/12 00:42:49;;;;;;;5.55;5.03;;;;;;;;;;5022695;28;20049;-74
2022/07/12 00:45:15;;;;;;;5.22;4.80;;;;;;;;;;5021452;28;20056;-73
2022/07/12 00:47:45;;;;;;;5.70;5.20;;;;;;;;;;5032377;28;20057;-74
2022/07/12 00:50:12;;;;;;;5.25;4.78;;;;;;;;;;5017734;28;20052;-74
2022/07/12 00:52:38;;;;;;;5.70;5.20;;;;;;;;;;5024336;28;20044;-73
2022/07/12 00:55:05;;;;;;;5.70;5.10;;;;;;;;;;5019873;28;20069;-73
2022/07/12 00:57:32;;;;;;;6.45;5.28;;;;;;;;;;5020929;28;20046;-73
2022/07/12 00:59:58;;;;;;;5.70;5.20;;;;;;;;;;5017448;28;20477;-73
2022/07/12 01:02:24;;;;;;;6.30;5.70;;;;;;;;;;5023873;28;20191;-73
2022/07/12 01:04:51;;;;;;;5.80;5.30;;;;;;;;;;5022282;28;20041;-73
2022/07/12 01:07:17;;;;;;;6.38;5.35;;;;;;;;;;5019324;28;20515;-74
2022/07/12 01:09:44;;;;;;;5.32;4.82;;;;;;;;;;5030217;28;20033;-73
2022/07/12 01:12:10;;;;;;;5.80;5.20;;;;;;;;;;5019817;28;20493;-73
2022/07/12 01:14:36;;;;;;;5.55;5.05;;;;;;;;;;5026439;28;20049;-73
2022/07/12 01:17:03;;;;;;;5.45;5.05;;;;;;;;;;5024030;28;20049;-73
2022/07/12 01:19:29;;;;;;;5.57;5.07;;;;;;;;;;5028706;28;20037;-73
2022/07/12 01:21:57;;;;;;;5.20;4.80;;;;;;;;;;5025752;28;20050;-73
2022/07/12 01:24:23;;;;;;;5.28;4.78;;;;;;;;;;5029436;28;20389;-74
2022/07/12 01:26:51;;;;;;;9.85;5.65;;;;;;;;;;5028224;28;20149;-72
2022/07/12 01:29:17;;;;;;;9.88;4.72;;;;;;;;;;5041408;28;20120;-74
2022/07/12 01:31:43;;;;;;;23.80;5.50;;;;;;;;;;5021141;28;20054;-73
2022/07/12 01:34:09;;;;;;;10.55;4.80;;;;;;;;;;5028748;28;20045;-73
2022/07/12 01:36:36;;;;;;;15.07;4.85;;;;;;;;;;5026621;28;20053;-73
2022/07/12 01:39:04;;;;;;;7.78;4.43;;;;;;;;;;5020690;28;20044;-73
2022/07/12 01:41:30;;;;;;;6.00;4.18;;;;;;;;;;5023149;28;20048;-73
2022/07/12 01:43:56;;;;;;;18.83;4.88;;;;;;;;;;5027287;28;20040;-73
2022/07/12 01:46:23;;;;;;;16.27;5.03;;;;;;;;;;5025028;28;20040;-74
2022/07/12 01:48:49;;;;;;;13.23;4.70;;;;;;;;;;5030188;28;20050;-74
2022/07/12 01:51:15;;;;;;;21.52;4.72;;;;;;;;;;5024089;28;20532;-73
2022/07/12 01:53:41;;;;;;;7.65;4.38;;;;;;;;;;5021673;28;20091;-73
2022/07/12 01:56:07;;;;;;;9.98;3.97;;;;;;;;;;5023505;28;20072;-73
2022/07/12 01:58:33;;;;;;;7.55;4.10;;;;;;;;;;5056828;28;20077;-73
2022/07/12 02:00:59;;;;;;;4.10;3.70;;;;;;;;;;5028283;28;20763;-73
2022/07/12 02:03:25;;;;;;;4.20;3.55;;;;;;;;;;5031478;28;20198;-73
2022/07/12 02:05:51;;;;;;;4.45;4.05;;;;;;;;;;5030651;28;20172;-73
2022/07/12 02:08:17;;;;;;;6.55;3.90;;;;;;;;;;5033776;28;20083;-73
2022/07/12 02:10:44;;;;;;;6.25;3.88;;;;;;;;;;5030026;28;20124;-73
2022/07/12 02:13:10;;;;;;;4.50;4.10;;;;;;;;;;5037947;28;20049;-73
2022/07/12 02:15:36;;;;;;;5.38;4.47;;;;;;;;;;5013473;28;20042;-74
2022/07/12 02:18:02;;;;;;;4.40;4.00;;;;;;;;;;5022646;28;20044;-73
2022/07/12 02:20:28;;;;;;;4.25;3.95;;;;;;;;;;5032173;28;20087;-73
2022/07/12 02:22:54;;;;;;;4.03;3.72;;;;;;;;;;5025159;28;20556;-73
2022/07/12 02:25:20;;;;;;;4.45;4.05;;;;;;;;;;5016098;28;20037;-73
2022/07/12 02:27:46;;;;;;;5.30;4.53;;;;;;;;;;5023647;28;20033;-74
2022/07/12 02:30:12;;;;;;;4.60;4.20;;;;;;;;;;5026102;28;20451;-73
2022/07/12 02:32:38;;;;;;;4.65;4.25;;;;;;;;;;5027929;28;20095;-73
2022/07/12 02:35:05;;;;;;;5.03;4.43;;;;;;;;;;5024964;28;20095;-73
2022/07/12 02:37:31;;;;;;;4.88;4.43;;;;;;;;;;5019168;28;20081;-73
2022/07/12 02:42:43;;;;;;;4.63;4.10;;;;;;;;;;5035540;28;20103;-73
2022/07/12 02:45:09;;;;;;;4.18;3.78;;;;;;;;;;5023191;28;20076;-73
2022/07/12 02:47:39;;;;;;;4.47;4.07;;;;;;;;;;5027521;28;20103;-74
2022/07/12 02:50:07;;;;;;;4.45;4.05;;;;;;;;;;5028030;28;20077;-73
2022/07/12 02:52:34;;;;;;;4.47;4.10;;;;;;;;;;5034117;28;20720;-73
2022/07/12 02:55:00;;;;;;;4.47;4.07;;;;;;;;;;5031341;28;20041;-73
2022/07/12 02:57:26;;;;;;;4.57;4.18;;;;;;;;;;5030490;28;20099;-73
2022/07/12 02:59:52;;;;;;;4.85;4.45;;;;;;;;;;5017528;28;20139;-73
2022/07/12 03:02:18;;;;;;;7.38;4.68;;;;;;;;;;5010264;28;20057;-73
2022/07/12 03:04:44;;;;;;;5.10;4.47;;;;;;;;;;5025916;28;20049;-73
2022/07/12 03:07:10;;;;;;;5.15;4.65;;;;;;;;;;5029608;28;20041;-73
2022/07/12 03:09:36;;;;;;;4.93;4.43;;;;;;;;;;5014851;28;20049;-73
2022/07/12 03:12:02;;;;;;;4.85;4.40;;;;;;;;;;5050462;28;20046;-73
2022/07/12 03:14:28;;;;;;;4.75;4.35;;;;;;;;;;5055474;28;20087;-73
2022/07/12 03:16:54;;;;;;;5.00;4.40;;;;;;;;;;5015595;28;20077;-73
2022/07/12 03:19:20;;;;;;;5.05;4.55;;;;;;;;;;5020262;28;20084;-72
2022/07/12 03:21:48;;;;;;;4.47;4.07;;;;;;;;;;5030563;28;20060;-73
2022/07/12 03:24:14;;;;;;;4.78;4.28;;;;;;;;;;5021019;28;20401;-73
2022/07/12 03:26:40;;;;;;;4.15;3.85;;;;;;;;;;5019891;28;20049;-73
2022/07/12 03:29:06;;;;;;;4.30;3.90;;;;;;;;;;5026974;28;20103;-73
2022/07/12 03:31:32;;;;;;;5.13;4.20;;;;;;;;;;5027113;28;20057;-73
2022/07/12 03:33:58;;;;;;;4.03;3.72;;;;;;;;;;5030351;28;20143;-73
2022/07/12 03:36:24;;;;;;;3.65;3.35;;;;;;;;;;5018529;28;20136;-73
2022/07/12 03:38:50;;;;;;;3.85;3.55;;;;;;;;;;5031375;28;20404;-73
2022/07/12 03:41:16;;;;;;;3.85;3.55;;;;;;;;;;5030236;28;20107;-73
2022/07/12 03:43:42;;;;;;;3.88;3.58;;;;;;;;;;5030471;28;20041;-73
2022/07/12 03:46:08;;;;;;;3.80;3.50;;;;;;;;;;5017209;28;20506;-73
2022/07/12 03:48:34;;;;;;;3.72;3.42;;;;;;;;;;5021687;28;20125;-73
2022/07/12 03:51:00;;;;;;;4.15;3.67;;;;;;;;;;5026347;28;20042;-73
2022/07/12 03:53:26;;;;;;;4.63;3.83;;;;;;;;;;5025954;28;20045;-73
2022/07/12 03:55:52;;;;;;;4.18;3.83;;;;;;;;;;5011999;28;20694;-73
2022/07/12 03:58:18;;;;;;;3.63;3.42;;;;;;;;;;5024977;28;20083;-73
2022/07/12 04:00:44;;;;;;;3.75;3.45;;;;;;;;;;5018106;28;20073;-73
2022/07/12 04:03:10;;;;;;;3.83;3.53;;;;;;;;;;5018692;28;20045;-73
2022/07/12 04:05:37;;;;;;;3.97;3.67;;;;;;;;;;5016616;28;20037;-73
2022/07/12 04:08:03;;;;;;;4.32;3.85;;;;;;;;;;5021356;28;20482;-73
2022/07/12 04:10:32;;;;;;;4.00;3.70;;;;;;;;;;5020915;28;20042;-73
2022/07/12 04:12:58;;;;;;;4.40;4.00;;;;;;;;;;5020978;28;20053;-72
2022/07/12 04:15:24;;;;;;;4.28;3.88;;;;;;;;;;5021958;28;20637;-73
2022/07/12 04:17:50;;;;;;;4.43;4.03;;;;;;;;;;5012951;28;20053;-73
2022/07/12 04:20:16;;;;;;;4.65;4.00;;;;;;;;;;5023211;28;20045;-73
2022/07/12 04:22:42;;;;;;;4.30;3.90;;;;;;;;;;5022124;28;20034;-73
2022/07/12 04:25:09;;;;;;;4.38;3.88;;;;;;;;;;5030145;28;20543;-73
2022/07/12 04:27:35;;;;;;;4.47;4.07;;;;;;;;;;5024354;28;20245;-73
2022/07/12 04:30:02;;;;;;;4.68;4.28;;;;;;;;;;5024525;28;20054;-73
2022/07/12 04:32:30;;;;;;;4.60;4.20;;;;;;;;;;5026084;28;20374;-73
2022/07/12 04:34:56;;;;;;;4.20;3.90;;;;;;;;;;5021955;28;20048;-73
2022/07/12 04:37:22;;;;;;;4.50;3.90;;;;;;;;;;5028583;28;20363;-73
2022/07/12 04:39:48;;;;;;;5.05;4.55;;;;;;;;;;5053361;28;20050;-73
2022/07/12 04:42:15;;;;;;;4.47;4.05;;;;;;;;;;5017141;28;20136;-73
2022/07/12 04:44:41;;;;;;;4.70;4.30;;;;;;;;;;5009270;28;20065;-73
2022/07/12 04:47:07;;;;;;;5.88;4.10;;;;;;;;;;5017432;28;20788;-73
2022/07/12 04:49:33;;;;;;;5.03;4.53;;;;;;;;;;5018052;28;20083;-73
2022/07/12 04:51:59;;;;;;;4.60;4.20;;;;;;;;;;5025707;28;20049;-73
2022/07/12 04:54:25;;;;;;;5.72;4.40;;;;;;;;;;5018805;28;20041;-74
2022/07/12 04:56:51;;;;;;;5.88;4.25;;;;;;;;;;5023385;28;20602;-73
2022/07/12 04:59:17;;;;;;;5.90;4.13;;;;;;;;;;5023166;28;20049;-73
2022/07/12 05:01:45;;;;;;;4.63;4.22;;;;;;;;;;5023300;28;20092;-73
2022/07/12 05:04:11;;;;;;;5.43;4.60;;;;;;;;;;5043664;28;20064;-73
2022/07/12 05:06:37;;;;;;;6.00;4.20;;;;;;;;;;5011982;28;20038;-73
2022/07/12 05:09:03;;;;;;;5.18;4.55;;;;;;;;;;5019623;28;20049;-73
2022/07/12 05:11:29;;;;;;;5.38;4.88;;;;;;;;;;5018447;28;20037;-73
2022/07/12 05:13:55;;;;;;;4.90;4.50;;;;;;;;;;5027720;28;20144;-73
2022/07/12 05:16:21;;;;;;;4.82;4.43;;;;;;;;;;5015105;28;20061;-73
2022/07/12 05:18:47;;;;;;;4.70;4.30;;;;;;;;;;5019982;28;20142;-73
2022/07/12 05:21:13;;;;;;;5.13;4.65;;;;;;;;;;5024643;28;20421;-73
2022/07/12 05:23:39;;;;;;;5.60;4.53;;;;;;;;;;5017598;28;20125;-73
2022/07/12 05:26:05;;;;;;;5.18;4.13;;;;;;;;;;5045999;28;20122;-73
2022/07/12 05:28:34;;;;;;;5.07;4.25;;;;;;;;;;5034071;28;20421;-73
2022/07/12 05:31:00;;;;;;;5.43;4.93;;;;;;;;;;5021026;28;20417;-73
2022/07/12 05:33:26;;;;;;;5.53;5.00;;;;;;;;;;5035462;28;20147;-73
2022/07/12 05:35:52;;;;;;;5.53;5.00;;;;;;;;;;5031895;28;20045;-74
2022/07/12 05:38:18;;;;;;;5.38;4.93;;;;;;;;;;5038102;28;20171;-74
2022/07/12 05:40:44;;;;;;;5.88;5.35;;;;;;;;;;5021861;28;20132;-73
2022/07/12 05:43:10;;;;;;;5.40;4.90;;;;;;;;;;5043980;28;20051;-73
2022/07/12 05:45:36;;;;;;;5.85;5.20;;;;;;;;;;5029083;28;20057;-74
2022/07/12 05:48:02;;;;;;;5.50;5.00;;;;;;;;;;5019500;28;20058;-73
2022/07/12 05:50:29;;;;;;;6.85;5.22;;;;;;;;;;5023159;28;20049;-72
2022/07/12 05:55:39;;;;;;;5.63;5.07;;;;;;;;;;5048255;28;20132;-74
2022/07/12 05:58:05;;;;;;;7.72;5.35;;;;;;;;;;5049749;28;20103;-73
2022/07/12 06:00:32;;;;;;;5.70;5.20;;;;;;;;;;5019528;28;20045;-73
2022/07/12 06:02:58;;;;;;;7.18;5.78;;;;;;;;;;5013666;28;20063;-73
2022/07/12 06:05:24;;;;;;;7.88;5.57;;;;;;;;;;5011841;28;20041;-73
2022/07/12 06:07:50;;;;;;;6.72;6.00;;;;;;;;;;5020101;28;20046;-73
2022/07/12 06:10:16;;;;;;;6.80;6.10;;;;;;;;;;5022333;28;20048;-74
2022/07/12 06:12:42;;;;;;;6.63;6.03;;;;;;;;;;5024440;28;20038;-73
2022/07/12 06:15:09;;;;;;;6.45;5.85;;;;;;;;;;5060077;28;20416;-73
2022/07/12 06:17:35;;;;;;;6.93;6.32;;;;;;;;;;5021324;28;20049;-73
2022/07/12 06:20:01;;;;;;;7.35;6.05;;;;;;;;;;5032619;28;20091;-73
2022/07/12 06:22:27;;;;;;;6.90;6.30;;;;;;;;;;5024114;28;20050;-73
2022/07/12 06:24:53;;;;;;;26.27;8.25;;;;;;;;;;5029433;28;20143;-73
2022/07/12 06:27:19;;;;;;;34.25;10.88;;;;;;;;;;5055507;28;20129;-73
2022/07/12 06:29:47;;;;;;;8.18;6.47;;;;;;;;;;5023499;28;20613;-73
2022/07/12 06:32:14;;;;;;;7.25;6.55;;;;;;;;;;5025426;28;20144;-73
2022/07/12 06:34:40;;;;;;;7.20;6.57;;;;;;;;;;5031382;28;20046;-73
2022/07/12 06:37:08;;;;;;;7.70;7.00;;;;;;;;;;5037271;28;20048;-73
2022/07/12 06:39:34;;;;;;;7.25;6.65;;;;;;;;;;5040825;28;20055;-74
2022/07/12 06:42:03;;;;;;;8.00;7.20;;;;;;;;;;5048713;28;20040;-73
2022/07/12 06:44:29;;;;;;;7.65;6.95;;;;;;;;;;5046216;28;20554;-73
2022/07/12 06:46:55;;;;;;;8.13;7.43;;;;;;;;;;5035305;28;20133;-74
2022/07/12 06:49:21;;;;;;;8.00;7.30;;;;;;;;;;5047238;28;20467;-74
2022/07/12 06:51:47;;;;;;;7.93;7.05;;;;;;;;;;5062912;28;20485;-74
2022/07/12 06:54:13;;;;;;;8.73;7.82;;;;;;;;;;5032129;28;20077;-74
2022/07/12 06:56:39;;;;;;;8.40;7.60;;;;;;;;;;5038125;28;20075;-74
2022/07/12 06:59:05;;;;;;;8.02;7.32;;;;;;;;;;5027815;28;20053;-74
2022/07/12 07:01:31;;;;;;;7.82;7.13;;;;;;;;;;5037441;28;20034;-73
2022/07/12 07:03:57;;;;;;;8.07;7.28;;;;;;;;;;5027877;28;20085;-73
2022/07/12 07:06:23;;;;;;;9.63;7.70;;;;;;;;;;5029737;28;20081;-74
2022/07/12 07:08:49;;;;;;;7.70;7.00;;;;;;;;;;5041166;28;20120;-74
2022/07/12 07:11:16;;;;;;;8.77;7.80;;;;;;;;;;5032817;28;20068;-74
2022/07/12 07:13:41;;;;;;;8.30;7.60;;;;;;;;;;5039110;28;20041;-73
2022/07/12 07:16:08;;;;;;;8.73;7.93;;;;;;;;;;5045795;28;20049;-74
2022/07/12 07:18:34;;;;;;;8.75;7.80;;;;;;;;;;5046731;28;20041;-73
2022/07/12 07:21:00;;;;;;;8.23;7.40;;;;;;;;;;5040256;28;20084;-73
2022/07/12 07:23:26;;;;;;;8.73;7.93;;;;;;;;;;5029338;28;20107;-74
2022/07/12 07:25:52;;;;;;;8.32;7.53;;;;;;;;;;5032043;28;20049;-73
2022/07/12 07:28:18;;;;;;;7.47;6.88;;;;;;;;;;5044078;28;20041;-74
2022/07/12 07:30:53;;;;;;;7.88;7.15;;;;;;;;;;5029590;28;20048;-74
2022/07/12 07:33:22;;;;;;;7.53;6.93;;;;;;;;;;5029553;28;20056;-73
2022/07/12 07:35:48;;;;;;;7.53;6.80;;;;;;;;;;5039905;28;20053;-73
2022/07/12 07:38:15;;;;;;;7.70;7.00;;;;;;;;;;5039779;28;20049;-73
2022/07/12 07:40:41;;;;;;;7.93;7.22;;;;;;;;;;5030438;28;20053;-74
2022/07/12 07:43:07;;;;;;;7.22;6.63;;;;;;;;;;5057879;28;20049;-73
2022/07/12 07:45:33;;;;;;;7.10;6.45;;;;;;;;;;5027922;28;20041;-74
2022/07/12 07:47:59;;;;;;;6.57;5.93;;;;;;;;;;5020869;28;20045;-74
2022/07/12 07:50:29;;;;;;;6.93;6.13;;;;;;;;;;5019286;28;20467;-74
2022/07/12 07:52:55;;;;;;;7.03;6.30;;;;;;;;;;5054453;28;20068;-73
2022/07/12 07:55:21;;;;;;;6.90;6.30;;;;;;;;;;5037104;28;20041;-74
2022/07/12 07:57:47;;;;;;;6.63;6.03;;;;;;;;;;5021566;28;20505;-74
2022/07/12 08:00:14;;;;;;;6.47;5.88;;;;;;;;;;5053042;28;20042;-74
2022/07/12 08:02:41;;;;;;;6.90;6.30;;;;;;;;;;5022873;28;20046;-74
2022/07/12 08:05:07;;;;;;;7.40;6.70;;;;;;;;;;5054977;28;20392;-74
2022/07/12 08:07:33;;;;;;;7.40;6.70;;;;;;;;;;5028915;28;20738;-74
2022/07/12 08:09:59;;;;;;;6.32;5.82;;;;;;;;;;5024686;28;20099;-74
2022/07/12 08:12:26;;;;;;;7.35;6.75;;;;;;;;;;5018422;28;20220;-73
2022/07/12 08:14:52;;;;;;;7.45;6.63;;;;;;;;;;5050882;28;20050;-74
2022/07/12 08:17:18;;;;;;;6.80;6.30;;;;;;;;;;5022011;28;20046;-74
2022/07/12 08:19:44;;;;;;;7.07;6.38;;;;;;;;;;5023900;28;20034;-74
2022/07/12 08:22:10;;;;;;;7.25;6.65;;;;;;;;;;5036422;28;20451;-74
2022/07/12 08:24:36;;;;;;;7.68;7.05;;;;;;;;;;5035183;28;20080;-74
2022/07/12 08:27:02;;;;;;;7.10;6.50;;;;;;;;;;5044509;28;20084;-73
2022/07/12 08:29:28;;;;;;;6.88;6.30;;;;;;;;;;5035285;28;20053;-73
2022/07/12 08:31:54;;;;;;;6.90;6.30;;;;;;;;;;5039326;28;20056;-74
2022/07/12 08:34:20;;;;;;;7.00;6.40;;;;;;;;;;5049371;28;20053;-74
2022/07/12 08:36:46;;;;;;;7.40;6.20;;;;;;;;;;5029927;28;20041;-74
2022/07/12 08:39:12;;;;;;;6.80;6.20;;;;;;;;;;5018255;28;20049;-74
2022/07/12 08:41:38;;;;;;;7.30;6.70;;;;;;;;;;5019906;28;20457;-74
2022/07/12 08:44:07;;;;;;;7.20;6.50;;;;;;;;;;5026111;28;20041;-74
2022/07/12 08:46:33;;;;;;;7.55;6.35;;;;;;;;;;5020627;28;20489;-74
2022/07/12 08:49:05;;;;;;;6.65;6.05;;;;;;;;;;5021248;28;20046;-74
2022/07/12 08:51:31;;;;;;;7.25;6.65;;;;;;;;;;5022816;28;20288;-74
2022/07/12 08:54:05;;;;;;;7.75;7.05;;;;;;;;;;5012993;28;20128;-74
2022/07/12 08:56:33;;;;;;;8.25;7.45;;;;;;;;;;5019704;28;20375;-74
2022/07/12 08:59:17;;;;;;;7.50;6.90;;;;;;;;;;5021889;28;20545;-74
2022/07/12 09:01:44;;;;;;;8.73;7.78;;;;;;;;;;5018516;28;20097;-74
2022/07/12 09:04:11;;;;;;;8.63;7.80;;;;;;;;;;5013610;28;20136;-74
2022/07/12 09:06:37;;;;;;;7.82;7.03;;;;;;;;;;5023509;28;20085;-74
2022/07/12 09:09:03;;;;;;;7.47;6.88;;;;;;;;;;5049932;28;20069;-74
2022/07/12 09:11:29;;;;;;;8.63;7.82;;;;;;;;;;5024747;28;20088;-74
2022/07/12 09:13:56;;;;;;;7.40;6.70;;;;;;;;;;5025582;28;20073;-74
2022/07/12 09:16:23;;;;;;;7.20;6.60;;;;;;;;;;5025076;28;20484;-74
2022/07/12 09:18:50;;;;;;;8.52;7.82;;;;;;;;;;5027214;28;20037;-74
2022/07/12 09:21:30;;;;;;;8.90;8.02;;;;;;;;;;5014488;28;20101;-74
2022/07/12 09:23:57;;;;;;;8.70;8.00;;;;;;;;;;5019777;28;20096;-74
2022/07/12 09:26:33;;;;;;;8.52;7.82;;;;;;;;;;5022596;28;20497;-74
2022/07/12 09:29:06;;;;;;;9.40;8.60;;;;;;;;;;5020327;28;20038;-74
2022/07/12 09:37:18;;;;;;;8.35;7.55;;;;;;;;;;5021186;28;20045;-74
2022/07/12 09:39:44;;;;;;;8.38;7.65;;;;;;;;;;5026758;28;20094;-74
2022/07/12 09:42:12;;;;;;;9.35;8.45;;;;;;;;;;5021324;28;20489;-74
2022/07/12 09:44:38;;;;;;;9.88;9.07;;;;;;;;;;5026426;28;20080;-74
2022/07/12 09:47:07;;;;;;;9.80;8.90;;;;;;;;;;5027195;28;20052;-74
2022/07/12 09:49:33;;;;;;;9.55;8.75;;;;;;;;;;5025863;28;20068;-74
2022/07/12 09:52:00;;;;;;;10.00;9.10;;;;;;;;;;5025342;28;20069;-74
2022/07/12 09:54:27;;;;;;;9.00;8.10;;;;;;;;;;5016583;28;20091;-74
2022/07/12 09:56:55;;;;;;;9.00;8.25;;;;;;;;;;5026483;28;20041;-74
2022/07/12 09:59:23;;;;;;;9.30;8.50;;;;;;;;;;5029245;28;20049;-74
2022/07/12 10:01:50;;;;;;;10.48;9.52;;;;;;;;;;5028725;28;20045;-74
2022/07/12 10:04:21;;;;;;;10.20;9.25;;;;;;;;;;5024785;28;20050;-74
2022/07/12 10:06:47;;;;;;;10.38;9.32;;;;;;;;;;5017847;28;20120;-74
2022/07/12 10:09:14;;;;;;;10.38;9.35;;;;;;;;;;5026539;28;20056;-74
2022/07/12 10:11:41;;;;;;;9.70;8.90;;;;;;;;;;5024481;28;20046;-74
2022/07/12 10:14:10;;;;;;;10.52;9.57;;;;;;;;;;5027618;28;20498;-74
2022/07/12 10:16:37;;;;;;;10.25;9.30;;;;;;;;;;5028381;28;20095;-74
2022/07/12 10:19:25;;;;;;;10.70;9.80;;;;;;;;;;5027859;28;20052;-74
2022/07/12 10:21:52;;;;;;;9.63;8.82;;;;;;;;;;5024346;28;20049;-74
2022/07/12 10:24:36;;;;;;;10.07;9.18;;;;;;;;;;5023837;28;20190;-74
2022/07/12 10:27:14;;;;;;;10.40;8.85;;;;;;;;;;5023405;28;20049;-74
2022/07/12 10:29:40;;;;;;;10.32;9.43;;;;;;;;;;5059554;28;20046;-74
2022/07/12 10:32:19;;;;;;;10.70;9.80;;;;;;;;;;5017327;28;20056;-74
2022/07/12 10:34:56;;;;;;;10.18;9.15;;;;;;;;;;5024678;28;20049;-74
2022/07/12 10:37:25;;;;;;;10.43;9.52;;;;;;;;;;5022708;28;20042;-74
2022/07/12 10:40:17;;;;;;;10.00;9.13;;;;;;;;;;5029894;28;20045;-73
2022/07/12 10:43:04;;;;;;;10.95;9.95;;;;;;;;;;5014873;28;20077;-74
2022/07/12 10:45:32;;;;;;;10.63;9.55;;;;;;;;;;5032986;28;20053;-74
2022/07/12 10:48:02;;;;;;;10.93;9.93;;;;;;;;;;5018753;28;20898;-74
2022/07/12 10:50:48;;;;;;;10.43;9.48;;;;;;;;;;5030463;28;20068;-74
2022/07/12 10:53:34;;;;;;;10.70;9.80;;;;;;;;;;5021663;28;20053;-74
2022/07/12 10:56:14;;;;;;;10.85;9.85;;;;;;;;;;5014850;28;20041;-74
2022/07/12 10:58:43;;;;;;;11.43;9.15;;;;;;;;;;5030161;28;20505;-74
2022/07/12 11:01:14;;;;;;;9.85;8.90;;;;;;;;;;5023890;28;20045;-74
2022/07/12 11:03:41;;;;;;;9.05;8.25;;;;;;;;;;5024820;28;20034;-74
2022/07/12 11:06:08;;;;;;;9.65;8.80;;;;;;;;;;5029880;28;20351;-74
2022/07/12 11:08:53;;;;;;;11.18;10.05;;;;;;;;;;5027394;28;20056;-74
2022/07/12 11:11:21;;;;;;;12.05;10.70;;;;;;;;;;5029712;28;20037;-74
2022/07/12 11:13:47;;;;;;;11.77;10.68;;;;;;;;;;5032497;28;20120;-74
2022/07/12 11:16:13;;;;;;;10.02;9.13;;;;;;;;;;5023346;28;20496;-74
2022/07/12 11:18:40;;;;;;;12.65;11.50;;;;;;;;;;5030953;28;20040;-74
2022/07/12 11:21:06;;;;;;;10.60;9.70;;;;;;;;;;5029985;28;20433;-74
2022/07/12 11:23:32;;;;;;;11.25;10.25;;;;;;;;;;5024766;28;20043;-74
2022/07/12 11:25:59;;;;;;;9.65;8.73;;;;;;;;;;5021349;28;20076;-74
2022/07/12 11:28:27;;;;;;;13.40;10.10;;;;;;;;;;5028351;28;20401;-74
2022/07/12 11:30:54;;;;;;;10.63;9.50;;;;;;;;;;5013780;28;20575;-74
2022/07/12 11:33:25;;;;;;;11.05;9.95;;;;;;;;;;5027507;28;20084;-74
2022/07/12 11:35:52;;;;;;;11.52;10.52;;;;;;;;;;5021345;28;20357;-74
2022/07/12 11:38:25;;;;;;;12.15;11.05;;;;;;;;;;5019888;28;20049;-75
2022/07/12 11:40:56;;;;;;;11.70;10.50;;;;;;;;;;5021713;28;20081;-74
2022/07/12 11:43:22;;;;;;;12.23;10.93;;;;;;;;;;5023013;28;20081;-74
2022/07/12 11:45:48;;;;;;;11.10;10.10;;;;;;;;;;5014324;28;20389;-74
2022/07/12 11:48:14;;;;;;;11.15;10.15;;;;;;;;;;5020210;28;20432;-74
2022/07/12 11:50:44;;;;;;;12.88;11.60;;;;;;;;;;5024438;28;20037;-74
2022/07/12 11:53:24;;;;;;;11.85;10.73;;;;;;;;;;5023564;28;20405;-74
2022/07/12 11:55:55;;;;;;;11.93;10.80;;;;;;;;;;5014650;28;20136;-75
2022/07/12 11:58:22;;;;;;;11.82;10.73;;;;;;;;;;5022397;28;20049;-74
2022/07/12 12:00:49;;;;;;;11.23;10.23;;;;;;;;;;5020687;28;20448;-74
2022/07/12 12:03:16;;;;;;;11.20;9.63;;;;;;;;;;5023854;28;20128;-73
2022/07/12 12:05:42;;;;;;;13.52;10.45;;;;;;;;;;5026870;28;20401;-74
2022/07/12 12:08:10;;;;;;;10.93;9.82;;;;;;;;;;5013858;28;20054;-74
2022/07/12 12:10:36;;;;;;;11.07;10.00;;;;;;;;;;5026254;28;20063;-74
2022/07/12 12:13:02;;;;;;;10.52;9.50;;;;;;;;;;5018050;28;20073;-74
2022/07/12 12:15:32;;;;;;;11.45;9.50;;;;;;;;;;5024784;28;20412;-74
2022/07/12 12:17:58;;;;;;;11.48;10.38;;;;;;;;;;5023281;28;20481;-74
2022/07/12 12:20:28;;;;;;;10.77;9.65;;;;;;;;;;5020878;28;20045;-74
2022/07/12 12:22:58;;;;;;;9.77;8.65;;;;;;;;;;5023297;28;20061;-74
2022/07/12 12:25:24;;;;;;;10.40;9.50;;;;;;;;;;5025901;28;20056;-74
2022/07/12 12:27:54;;;;;;;10.48;9.48;;;;;;;;;;5024459;28;20041;-73
2022/07/12 12:30:20;;;;;;;11.07;10.02;;;;;;;;;;5014762;28;20075;-74
2022/07/12 12:32:48;;;;;;;9.55;8.55;;;;;;;;;;5023687;28;20085;-74
2022/07/12 12:35:14;;;;;;;9.00;8.15;;;;;;;;;;5019962;28;20489;-74
2022/07/12 12:37:40;;;;;;;9.10;8.30;;;;;;;;;;5020462;28;20038;-74
2022/07/12 12:40:07;;;;;;;7.97;7.18;;;;;;;;;;5014993;28;20061;-74
2022/07/12 12:42:33;;;;;;;10.45;8.75;;;;;;;;;;5023201;28;20397;-74
2022/07/12 12:44:59;;;;;;;7.95;7.15;;;;;;;;;;5017228;28;20064;-75
2022/07/12 12:47:31;;;;;;;7.90;7.20;;;;;;;;;;5021401;28;21032;-75
2022/07/12 12:49:59;;;;;;;8.52;7.32;;;;;;;;;;5012274;28;20481;-75
2022/07/12 12:52:26;;;;;;;7.40;6.32;;;;;;;;;;5020451;28;20437;-75
2022/07/12 12:54:53;;;;;;;6.75;6.13;;;;;;;;;;5018209;28;20042;-75
2022/07/12 12:57:19;;;;;;;6.82;6.22;;;;;;;;;;5012982;28;20057;-75
2022/07/12 12:59:45;;;;;;;6.50;5.90;;;;;;;;;;5022427;28;20124;-75
2022/07/12 13:02:12;;;;;;;6.28;5.78;;;;;;;;;;5020470;28;20550;-75
2022/07/12 13:04:39;;;;;;;6.32;5.75;;;;;;;;;;5019773;28;20590;-75
2022/07/12 13:07:06;;;;;;;5.72;5.20;;;;;;;;;;5023970;28;20125;-75
2022/07/12 13:09:33;;;;;;;6.30;5.57;;;;;;;;;;5031865;28;20493;-75
2022/07/12 13:11:59;;;;;;;5.43;4.90;;;;;;;;;;5027986;28;20116;-75
2022/07/12 13:14:25;;;;;;;4.82;4.43;;;;;;;;;;5018177;28;20050;-74
2022/07/12 13:16:51;;;;;;;6.35;5.82;;;;;;;;;;5025694;28;20042;-74
2022/07/12 13:19:17;;;;;;;6.30;5.60;;;;;;;;;;5024786;28;20056;-74
2022/07/12 13:21:43;;;;;;;6.28;5.68;;;;;;;;;;5022730;28;20042;-75
2022/07/12 13:24:10;;;;;;;6.03;5.32;;;;;;;;;;5024022;28;20056;-74
2022/07/12 13:26:37;;;;;;;7.95;6.95;;;;;;;;;;5059135;28;20064;-75
2022/07/12 13:29:03;;;;;;;7.50;6.80;;;;;;;;;;5023504;28;20534;-75
2022/07/12 13:31:29;;;;;;;7.88;6.55;;;;;;;;;;5022984;28;20099;-74
2022/07/12 13:33:55;;;;;;;8.70;7.78;;;;;;;;;;5023731;28;20064;-74
2022/07/12 13:36:22;;;;;;;9.48;8.25;;;;;;;;;;5025081;28;20470;-75
2022/07/12 13:38:48;;;;;;;9.32;8.35;;;;;;;;;;5026120;28;20402;-75
2022/07/12 13:41:14;;;;;;;9.10;7.25;;;;;;;;;;5028172;28;21818;-74
2022/07/12 13:43:40;;;;;;;9.55;8.48;;;;;;;;;;5031001;28;20041;-75
2022/07/12 13:46:06;;;;;;;8.52;7.65;;;;;;;;;;5033790;28;20046;-75
2022/07/12 13:48:33;;;;;;;8.90;8.00;;;;;;;;;;5031775;28;20038;-74
2022/07/12 13:50:59;;;;;;;8.50;7.70;;;;;;;;;;5023571;28;20427;-74
2022/07/12 13:53:25;;;;;;;11.52;8.20;;;;;;;;;;5032305;28;20049;-75
2022/07/12 13:55:51;;;;;;;8.45;7.47;;;;;;;;;;5018084;28;20137;-75
2022/07/12 13:58:17;;;;;;;9.55;8.55;;;;;;;;;;5024273;28;20354;-75
2022/07/12 14:00:44;;;;;;;8.57;7.78;;;;;;;;;;5022028;28;20125;-75
2022/07/12 14:03:10;;;;;;;7.05;6.13;;;;;;;;;;5030689;28;20083;-75
2022/07/12 14:05:37;;;;;;;7.13;6.53;;;;;;;;;;5025465;28;20385;-75
2022/07/12 14:08:03;;;;;;;6.32;5.72;;;;;;;;;;5032023;28;20088;-75
2022/07/12 14:10:30;;;;;;;7.45;6.72;;;;;;;;;;5025760;28;20052;-75
2022/07/12 14:12:56;;;;;;;6.47;5.88;;;;;;;;;;5030449;28;20418;-75
2022/07/12 14:15:37;;;;;;;7.00;6.22;;;;;;;;;;5021231;28;20159;-74
2022/07/12 14:18:07;;;;;;;6.57;6.00;;;;;;;;;;5043176;28;20038;-75
2022/07/12 14:20:33;;;;;;;6.20;5.57;;;;;;;;;;5053191;28;20045;-75
2022/07/12 14:23:00;;;;;;;6.85;5.97;;;;;;;;;;5029474;28;20041;-72
2022/07/12 14:25:26;;;;;;;6.60;6.00;;;;;;;;;;5036554;28;20045;-75
2022/07/12 14:27:52;;;;;;;6.63;6.03;;;;;;;;;;5027880;28;20049;-72
2022/07/12 14:30:18;;;;;;;6.03;5.43;;;;;;;;;;5035606;28;20057;-73
2022/07/12 14:32:44;;;;;;;6.53;5.93;;;;;;;;;;5028813;28;20057;-72
2022/07/12 14:35:10;;;;;;;6.10;5.50;;;;;;;;;;5031689;28;20393;-75
2022/07/12 14:37:37;;;;;;;6.40;5.72;;;;;;;;;;5037066;28;20083;-72
2022/07/12 14:40:04;;;;;;;6.60;5.70;;;;;;;;;;5028542;28;20631;-72
2022/07/12 14:42:30;;;;;;;6.45;5.18;;;;;;;;;;5021233;28;20055;-71
2022/07/12 14:44:56;;;;;;;6.72;6.10;;;;;;;;;;5020021;28;20092;-71
2022/07/12 14:47:23;;;;;;;5.95;4.93;;;;;;;;;;5007754;28;20041;-73
2022/07/12 14:49:49;;;;;;;7.25;4.80;;;;;;;;;;5009780;28;20401;-72
2022/07/12 14:52:16;;;;;;;5.95;5.45;;;;;;;;;;5031848;28;20217;-76